Terminal Aerodrome Forecast
Issued by NWS

Home | Current Version | Previous Version | Graphics & Text | Print | Product List | Glossary On
Versions: 1 2 3 4 5 6 7 8 9 10 11 12 13 14 15 16 17 18
000
FTUS43 KMPX 192300
TAFRNH
TAF
KRNH 192329Z 2000/2024 16005KT P6SM BKN012 OVC020
     FM200400 15004KT 6SM BR SCT007 OVC013
     FM201000 16005KT 4SM BR OVC007
     FM202000 16006KT P6SM OVC015=

USA.gov is the U.S. government's official web portal to all federal, state and local government web resources and services.